createdAt,value
2022-10-14T00:00:07.363Z,1018.28
2022-10-14T00:01:07.546Z,1018.28
2022-10-14T00:02:07.825Z,1018.30
2022-10-14T00:03:07.877Z,1018.26
2022-10-14T00:04:08.057Z,1018.29
2022-10-14T00:05:08.216Z,1018.25
2022-10-14T00:06:08.416Z,1018.27
2022-10-14T00:07:08.564Z,1018.26
2022-10-14T00:08:08.727Z,1018.22
2022-10-14T00:09:08.912Z,1018.23
2022-10-14T00:10:09.073Z,1018.20
2022-10-14T00:11:09.248Z,1018.23
2022-10-14T00:12:09.445Z,1018.20
2022-10-14T00:13:09.606Z,1018.22
2022-10-14T00:14:09.786Z,1018.24
2022-10-14T00:15:09.956Z,1018.22
2022-10-14T00:16:10.173Z,1018.23
2022-10-14T00:17:10.317Z,1018.19
2022-10-14T00:18:10.487Z,1018.18
2022-10-14T00:19:10.667Z,1018.17
2022-10-14T00:20:10.855Z,1018.22
2022-10-14T00:21:11.039Z,1018.20
2022-10-14T00:22:11.214Z,1018.20
2022-10-14T00:23:11.377Z,1018.21
2022-10-14T00:24:11.556Z,1018.27
2022-10-14T00:25:11.725Z,1018.24
2022-10-14T00:26:11.934Z,1018.22
2022-10-14T00:27:12.077Z,1018.27
2022-10-14T00:28:12.252Z,1018.23
2022-10-14T00:29:12.436Z,1018.26
2022-10-14T00:30:12.623Z,1018.25
2022-10-14T00:31:12.815Z,1018.21
2022-10-14T00:32:12.982Z,1018.27
2022-10-14T00:33:13.146Z,1018.24
2022-10-14T00:34:13.336Z,1018.23
2022-10-14T00:35:13.511Z,1018.25
2022-10-14T00:36:13.708Z,1018.24
2022-10-14T00:37:13.843Z,1018.23
2022-10-14T00:38:14.026Z,1018.25
2022-10-14T00:39:14.195Z,1018.21
2022-10-14T00:40:14.375Z,1018.22
2022-10-14T00:41:14.574Z,1018.23
2022-10-14T00:42:14.755Z,1018.23
2022-10-14T00:43:14.905Z,1018.17
2022-10-14T00:44:15.075Z,1018.17
2022-10-14T00:45:15.255Z,1018.19
2022-10-14T00:46:15.443Z,1018.19
2022-10-14T00:47:15.634Z,1018.21
2022-10-14T00:48:15.776Z,1018.20
2022-10-14T00:49:15.952Z,1018.20
2022-10-14T00:50:16.126Z,1018.20
2022-10-14T00:51:16.316Z,1018.19
2022-10-14T00:52:16.484Z,1018.20
2022-10-14T00:53:16.669Z,1018.20
2022-10-14T00:54:16.828Z,1018.20
2022-10-14T00:55:17.011Z,1018.20
2022-10-14T00:56:17.194Z,1018.22
2022-10-14T00:57:17.324Z,1018.19
2022-10-14T00:58:17.525Z,1018.23
2022-10-14T00:59:17.708Z,1018.18
2022-10-14T01:00:17.854Z,1018.20
2022-10-14T01:01:18.090Z,1018.23
2022-10-14T01:02:18.213Z,1018.24
2022-10-14T01:03:18.394Z,1018.24
2022-10-14T01:04:18.564Z,1018.25
2022-10-14T01:05:18.739Z,1018.24
2022-10-14T01:06:18.927Z,1018.23
2022-10-14T01:07:19.411Z,1018.20
2022-10-14T01:08:19.267Z,1018.21
2022-10-14T01:09:19.453Z,1018.21
2022-10-14T01:10:19.625Z,1018.19
2022-10-14T01:11:19.814Z,1018.17
2022-10-14T01:12:35.355Z,1018.16
2022-10-14T01:13:21.143Z,1018.12
2022-10-14T01:14:20.327Z,1018.15
2022-10-14T01:15:20.503Z,1018.09
2022-10-14T01:16:20.691Z,1018.09
2022-10-14T01:17:20.864Z,1018.06
2022-10-14T01:18:21.032Z,1018.08
2022-10-14T01:19:21.204Z,1018.04
2022-10-14T01:20:21.374Z,1018.05
2022-10-14T01:21:21.573Z,1018.04
2022-10-14T01:22:22.480Z,1018.01
2022-10-14T01:23:21.894Z,1018.05
2022-10-14T01:24:22.064Z,1018.02
2022-10-14T01:25:22.254Z,1018.00
2022-10-14T01:26:22.443Z,1018.02
2022-10-14T01:27:22.583Z,1017.98
2022-10-14T01:28:22.835Z,1018.04
2022-10-14T01:29:22.924Z,1017.99
2022-10-14T01:30:23.096Z,1018.01
2022-10-14T01:31:23.295Z,1018.02
2022-10-14T01:32:23.711Z,1018.04
2022-10-14T01:33:23.602Z,1018.05
2022-10-14T01:34:23.772Z,1018.03
2022-10-14T01:35:23.940Z,1018.05
2022-10-14T01:36:24.124Z,1018.05
2022-10-14T01:37:24.303Z,1018.06
2022-10-14T01:38:24.482Z,1018.06
2022-10-14T01:39:24.663Z,1018.08
2022-10-14T01:40:24.834Z,1018.06
2022-10-14T01:41:25.022Z,1018.11
2022-10-14T01:42:25.162Z,1018.14
2022-10-14T01:43:25.342Z,1018.10
2022-10-14T01:44:25.512Z,1018.08
2022-10-14T01:45:25.694Z,1018.05
2022-10-14T01:46:25.871Z,1018.06
2022-10-14T01:47:26.052Z,1018.06
2022-10-14T01:48:26.212Z,1018.06
2022-10-14T01:49:26.390Z,1018.08
2022-10-14T01:50:26.563Z,1018.07
2022-10-14T01:51:26.742Z,1018.05
2022-10-14T01:52:26.922Z,1018.06
2022-10-14T01:53:27.102Z,1018.05
2022-10-14T01:54:27.272Z,1018.02
2022-10-14T01:55:27.461Z,1018.04
2022-10-14T01:56:27.642Z,1018.08
2022-10-14T01:57:27.822Z,1018.03
2022-10-14T01:58:28.000Z,1018.06
2022-10-14T01:59:28.172Z,1018.03
2022-10-14T02:00:28.342Z,1018.08
2022-10-14T02:01:28.565Z,1018.04
2022-10-14T02:02:28.672Z,1018.07
2022-10-14T02:03:28.854Z,1018.05
2022-10-14T02:04:29.021Z,1018.06
2022-10-14T02:05:29.194Z,1018.09
2022-10-14T02:06:29.382Z,1018.08
2022-10-14T02:07:29.562Z,1018.06
2022-10-14T02:08:29.745Z,1018.03
2022-10-14T02:09:29.921Z,1018.05
2022-10-14T02:10:30.093Z,1018.03
2022-10-14T02:11:30.289Z,1018.03
2022-10-14T02:12:30.441Z,1017.99
2022-10-14T02:13:30.589Z,1018.03
2022-10-14T02:14:30.774Z,1018.03
2022-10-14T02:15:30.947Z,1018.04
2022-10-14T02:16:31.131Z,1018.09
2022-10-14T02:17:31.302Z,1018.07
2022-10-14T02:18:31.486Z,1018.10
2022-10-14T02:19:31.652Z,1018.10
2022-10-14T02:20:31.833Z,1018.11
2022-10-14T02:21:32.024Z,1018.10
2022-10-14T02:22:32.191Z,1018.13
2022-10-14T02:23:32.371Z,1018.14
2022-10-14T02:24:32.545Z,1018.13
2022-10-14T02:25:32.710Z,1018.18
2022-10-14T02:26:32.905Z,1018.18
2022-10-14T02:27:33.081Z,1018.15
2022-10-14T02:28:33.278Z,1018.12
2022-10-14T02:29:33.438Z,1018.13
2022-10-14T02:30:33.623Z,1018.06
2022-10-14T02:31:33.787Z,1018.07
2022-10-14T02:32:33.950Z,1018.06
2022-10-14T02:33:34.122Z,1018.02
2022-10-14T02:34:34.309Z,1018.03
2022-10-14T02:35:34.460Z,1018.06
2022-10-14T02:36:34.641Z,1018.05
2022-10-14T02:37:34.822Z,1018.04
2022-10-14T02:38:35.000Z,1018.03
2022-10-14T02:39:35.202Z,1018.03
2022-10-14T02:40:35.360Z,1018.03
2022-10-14T02:41:35.530Z,1018.03
2022-10-14T02:42:35.709Z,1018.01
2022-10-14T02:43:35.891Z,1017.96
2022-10-14T02:44:36.059Z,1017.93
2022-10-14T02:45:36.250Z,1017.90
2022-10-14T02:46:36.410Z,1017.87
2022-10-14T02:47:36.587Z,1017.85
2022-10-14T02:48:36.754Z,1017.83
2022-10-14T02:49:36.932Z,1017.80
2022-10-14T02:50:37.127Z,1017.82
2022-10-14T02:51:37.289Z,1017.77
2022-10-14T02:52:37.469Z,1017.75
2022-10-14T02:53:37.649Z,1017.71
2022-10-14T02:54:37.850Z,1017.73
2022-10-14T02:55:38.019Z,1017.73
2022-10-14T02:56:38.196Z,1017.72
2022-10-14T02:57:38.381Z,1017.71
2022-10-14T02:58:38.543Z,1017.72
2022-10-14T02:59:38.750Z,1017.68
2022-10-14T03:00:38.889Z,1017.72
2022-10-14T03:01:39.117Z,1017.67
2022-10-14T03:02:39.289Z,1017.73
2022-10-14T03:03:39.399Z,1017.68
2022-10-14T03:04:39.593Z,1017.72
2022-10-14T03:05:39.805Z,1017.66
2022-10-14T03:06:39.940Z,1017.65
2022-10-14T03:07:40.109Z,1017.67
2022-10-14T03:08:40.269Z,1017.71
2022-10-14T03:09:40.470Z,1017.68
2022-10-14T03:10:40.608Z,1017.70
2022-10-14T03:11:40.780Z,1017.68
2022-10-14T03:12:40.971Z,1017.71
2022-10-14T03:13:41.109Z,1017.67
2022-10-14T03:14:41.278Z,1017.65
2022-10-14T03:15:41.460Z,1017.67
2022-10-14T03:16:41.628Z,1017.66
2022-10-14T03:17:41.808Z,1017.74
2022-10-14T03:18:41.978Z,1017.74
2022-10-14T03:19:42.178Z,1017.72
2022-10-14T03:20:42.315Z,1017.75
2022-10-14T03:21:42.489Z,1017.74
2022-10-14T03:22:42.659Z,1017.71
2022-10-14T03:23:42.836Z,1017.70
2022-10-14T03:24:43.047Z,1017.70
2022-10-14T03:25:43.177Z,1017.72
2022-10-14T03:26:43.349Z,1017.70
2022-10-14T03:27:43.527Z,1017.70
2022-10-14T03:28:43.759Z,1017.66
2022-10-14T03:29:43.907Z,1017.66
2022-10-14T03:30:44.052Z,1017.64
2022-10-14T03:31:44.217Z,1017.64
2022-10-14T03:32:44.388Z,1017.62
2022-10-14T03:33:44.557Z,1017.63
2022-10-14T03:34:44.741Z,1017.63
2022-10-14T03:35:44.916Z,1017.64
2022-10-14T03:36:45.069Z,1017.63
2022-10-14T03:37:45.237Z,1017.65
2022-10-14T03:38:45.397Z,1017.67
2022-10-14T03:39:45.618Z,1017.72
2022-10-14T03:40:45.798Z,1017.74
2022-10-14T03:41:45.977Z,1017.75
2022-10-14T03:42:46.136Z,1017.72
2022-10-14T03:43:46.324Z,1017.72
2022-10-14T03:44:46.497Z,1017.70
2022-10-14T03:45:46.676Z,1017.70
2022-10-14T03:46:46.854Z,1017.68
2022-10-14T03:47:47.007Z,1017.65
2022-10-14T03:48:47.170Z,1017.61
2022-10-14T03:49:47.366Z,1017.63
2022-10-14T03:50:47.497Z,1017.58
2022-10-14T03:51:47.675Z,1017.62
2022-10-14T03:52:50.961Z,1017.64
2022-10-14T03:53:49.046Z,1017.70
2022-10-14T03:54:48.216Z,1017.64
2022-10-14T03:55:48.377Z,1017.68
2022-10-14T03:56:48.536Z,1017.63
2022-10-14T03:57:48.715Z,1017.63
2022-10-14T03:58:48.886Z,1017.64
2022-10-14T03:59:49.077Z,1017.62
2022-10-14T04:00:49.219Z,1017.62
2022-10-14T04:01:49.423Z,1017.61
2022-10-14T04:02:49.556Z,1017.57
2022-10-14T04:03:49.733Z,1017.58
2022-10-14T04:04:49.916Z,1017.60
2022-10-14T04:05:50.066Z,1017.59
2022-10-14T04:06:50.237Z,1017.55
2022-10-14T04:07:50.421Z,1017.57
2022-10-14T04:08:50.575Z,1017.57
2022-10-14T04:09:50.767Z,1017.58
2022-10-14T04:10:50.906Z,1017.59
2022-10-14T04:11:51.080Z,1017.59
2022-10-14T04:12:51.247Z,1017.57
2022-10-14T04:13:51.416Z,1017.57
2022-10-14T04:14:51.601Z,1017.57
2022-10-14T04:15:51.768Z,1017.59
2022-10-14T04:16:51.951Z,1017.57
2022-10-14T04:17:52.106Z,1017.57
2022-10-14T04:18:52.286Z,1017.57
2022-10-14T04:19:52.488Z,1017.56
2022-10-14T04:20:52.627Z,1017.52
2022-10-14T04:21:52.825Z,1017.51
2022-10-14T04:22:52.976Z,1017.52
2022-10-14T04:23:53.147Z,1017.50
2022-10-14T04:24:53.315Z,1017.54
2022-10-14T04:25:53.490Z,1017.52
2022-10-14T04:26:53.675Z,1017.50
2022-10-14T04:27:53.845Z,1017.47
2022-10-14T04:28:54.063Z,1017.44
2022-10-14T04:29:54.190Z,1017.44
2022-10-14T04:30:54.335Z,1017.41
2022-10-14T04:31:54.526Z,1017.46
2022-10-14T04:32:54.665Z,1017.39
2022-10-14T04:33:54.827Z,1017.40
2022-10-14T04:34:54.995Z,1017.45
2022-10-14T04:35:55.167Z,1017.44
2022-10-14T04:36:55.376Z,1017.38
2022-10-14T04:37:55.495Z,1017.39
2022-10-14T04:38:55.676Z,1017.41
2022-10-14T04:39:55.844Z,1017.45
2022-10-14T04:40:56.006Z,1017.45
2022-10-14T04:41:56.239Z,1017.47
2022-10-14T04:42:56.369Z,1017.44
2022-10-14T04:43:56.535Z,1017.41
2022-10-14T04:44:56.755Z,1017.45
2022-10-14T04:45:56.888Z,1017.44
2022-10-14T04:46:57.095Z,1017.43
2022-10-14T04:47:57.249Z,1017.42
2022-10-14T04:48:57.424Z,1017.42
2022-10-14T04:49:57.604Z,1017.44
2022-10-14T04:50:57.765Z,1017.41
2022-10-14T04:51:57.955Z,1017.40
2022-10-14T04:52:58.114Z,1017.39
2022-10-14T04:53:58.315Z,1017.41
2022-10-14T04:54:58.459Z,1017.36
2022-10-14T04:55:58.642Z,1017.37
2022-10-14T04:56:58.831Z,1017.37
2022-10-14T04:57:58.986Z,1017.33
2022-10-14T04:58:59.166Z,1017.33
2022-10-14T04:59:59.316Z,1017.32
2022-10-14T05:00:59.485Z,1017.33
2022-10-14T05:01:59.704Z,1017.30
2022-10-14T05:02:59.814Z,1017.29
2022-10-14T05:03:59.985Z,1017.31
2022-10-14T05:05:00.170Z,1017.27
2022-10-14T05:06:00.334Z,1017.31
2022-10-14T05:07:00.535Z,1017.28
2022-10-14T05:08:00.674Z,1017.30
2022-10-14T05:09:00.844Z,1017.30
2022-10-14T05:10:01.035Z,1017.33
2022-10-14T05:11:01.193Z,1017.33
2022-10-14T05:12:01.396Z,1017.32
2022-10-14T05:13:01.568Z,1017.30
2022-10-14T05:14:01.714Z,1017.26
2022-10-14T05:15:01.905Z,1017.30
2022-10-14T05:16:02.065Z,1017.28
2022-10-14T05:17:02.248Z,1017.26
2022-10-14T05:18:02.405Z,1017.28
2022-10-14T05:19:02.606Z,1017.30
2022-10-14T05:20:02.754Z,1017.30
2022-10-14T05:21:02.953Z,1017.28
2022-10-14T05:22:03.132Z,1017.28
2022-10-14T05:23:03.306Z,1017.28
2022-10-14T05:24:03.464Z,1017.28
2022-10-14T05:25:03.633Z,1017.26
2022-10-14T05:26:03.794Z,1017.23
2022-10-14T05:27:03.979Z,1017.28
2022-10-14T05:28:04.133Z,1017.24
2022-10-14T05:29:04.296Z,1017.28
2022-10-14T05:30:04.471Z,1017.26
2022-10-14T05:31:04.660Z,1017.27
2022-10-14T05:32:04.854Z,1017.27
2022-10-14T05:33:05.013Z,1017.24
2022-10-14T05:34:05.192Z,1017.23
2022-10-14T05:35:05.373Z,1017.24
2022-10-14T05:36:05.530Z,1017.28
2022-10-14T05:37:05.742Z,1017.23
2022-10-14T05:38:05.895Z,1017.23
2022-10-14T05:39:06.075Z,1017.28
2022-10-14T05:40:06.246Z,1017.21
2022-10-14T05:41:06.416Z,1017.28
2022-10-14T05:42:06.592Z,1017.24
2022-10-14T05:43:06.762Z,1017.26
2022-10-14T05:44:06.913Z,1017.26
2022-10-14T05:45:07.133Z,1017.23
2022-10-14T05:46:07.286Z,1017.29
2022-10-14T05:47:07.444Z,1017.26
2022-10-14T05:48:07.600Z,1017.27
2022-10-14T05:49:07.784Z,1017.28
2022-10-14T05:50:07.996Z,1017.22
2022-10-14T05:51:08.168Z,1017.26
2022-10-14T05:52:08.315Z,1017.21
2022-10-14T05:53:08.538Z,1017.19
2022-10-14T05:54:08.684Z,1017.18
2022-10-14T05:55:08.859Z,1017.18
2022-10-14T05:56:09.016Z,1017.20
2022-10-14T05:57:09.208Z,1017.21
2022-10-14T05:58:09.384Z,1017.20
2022-10-14T05:59:09.583Z,1017.16
2022-10-14T06:00:09.771Z,1017.16
2022-10-14T06:01:09.944Z,1017.16
2022-10-14T06:02:10.115Z,1017.14
2022-10-14T06:03:10.326Z,1017.11
2022-10-14T06:04:10.473Z,1017.16
2022-10-14T06:05:10.683Z,1017.13
2022-10-14T06:06:10.841Z,1017.16
2022-10-14T06:07:11.026Z,1017.17
2022-10-14T06:08:11.173Z,1017.19
2022-10-14T06:09:11.693Z,1017.18
2022-10-14T06:10:11.564Z,1017.18
2022-10-14T06:11:11.701Z,1017.20
2022-10-14T06:12:11.862Z,1017.24
2022-10-14T06:13:12.033Z,1017.23
2022-10-14T06:14:12.203Z,1017.24
2022-10-14T06:15:12.443Z,1017.23
2022-10-14T06:16:12.560Z,1017.19
2022-10-14T06:17:12.751Z,1017.21
2022-10-14T06:18:12.914Z,1017.20
2022-10-14T06:19:13.121Z,1017.19
2022-10-14T06:20:13.311Z,1017.20
2022-10-14T06:21:13.515Z,1017.20
2022-10-14T06:22:13.623Z,1017.19
2022-10-14T06:23:13.782Z,1017.24
2022-10-14T06:24:13.933Z,1017.21
2022-10-14T06:25:14.155Z,1017.22
2022-10-14T06:26:14.312Z,1017.23
2022-10-14T06:27:14.472Z,1017.21
2022-10-14T06:28:14.719Z,1017.18
2022-10-14T06:29:14.831Z,1017.21
2022-10-14T06:30:14.996Z,1017.18
2022-10-14T06:31:15.159Z,1017.12
2022-10-14T06:32:15.410Z,1017.12
2022-10-14T06:33:15.473Z,1017.15
2022-10-14T06:34:15.635Z,1017.14
2022-10-14T06:35:15.832Z,1017.15
2022-10-14T06:36:15.984Z,1017.16
2022-10-14T06:37:16.142Z,1017.17
2022-10-14T06:38:16.301Z,1017.19
2022-10-14T06:39:16.504Z,1017.20
2022-10-14T06:40:16.672Z,1017.18
2022-10-14T06:41:16.850Z,1017.23
2022-10-14T06:42:17.010Z,1017.22
2022-10-14T06:43:17.164Z,1017.24
2022-10-14T06:44:17.322Z,1017.24
2022-10-14T06:45:17.521Z,1017.22
2022-10-14T06:46:17.662Z,1017.23
2022-10-14T06:47:17.833Z,1017.24
2022-10-14T06:48:18.001Z,1017.27
2022-10-14T06:49:18.177Z,1017.28
2022-10-14T06:50:18.363Z,1017.31
2022-10-14T06:51:18.531Z,1017.33
2022-10-14T06:52:18.866Z,1017.34
2022-10-14T06:53:18.885Z,1017.36
2022-10-14T06:54:19.057Z,1017.41
2022-10-14T06:55:19.221Z,1017.38
2022-10-14T06:56:19.378Z,1017.39
2022-10-14T06:57:19.537Z,1017.41
2022-10-14T06:58:19.692Z,1017.41
2022-10-14T06:59:19.861Z,1017.39
2022-10-14T07:00:20.542Z,1017.42
2022-10-14T07:01:20.205Z,1017.42
2022-10-14T07:02:20.705Z,1017.43
2022-10-14T07:03:20.544Z,1017.43
2022-10-14T07:04:20.701Z,1017.38
2022-10-14T07:05:20.882Z,1017.32
2022-10-14T07:06:21.021Z,1017.30
2022-10-14T07:07:21.222Z,1017.28
2022-10-14T07:08:21.383Z,1017.29
2022-10-14T07:09:21.552Z,1017.30
2022-10-14T07:10:21.731Z,1017.32
2022-10-14T07:11:21.913Z,1017.31
2022-10-14T07:12:22.383Z,1017.29
2022-10-14T07:13:22.232Z,1017.30
2022-10-14T07:14:22.421Z,1017.29
2022-10-14T07:15:22.625Z,1017.29
2022-10-14T07:16:22.732Z,1017.27
2022-10-14T07:17:23.351Z,1017.32
2022-10-14T07:18:23.095Z,1017.31
2022-10-14T07:19:23.334Z,1017.37
2022-10-14T07:20:23.534Z,1017.40
2022-10-14T07:21:23.593Z,1017.43
2022-10-14T07:22:24.152Z,1017.45
2022-10-14T07:23:23.931Z,1017.42
2022-10-14T07:24:24.092Z,1017.42
2022-10-14T07:25:24.273Z,1017.39
2022-10-14T07:26:24.473Z,1017.40
2022-10-14T07:27:24.842Z,1017.41
2022-10-14T07:28:24.779Z,1017.39
2022-10-14T07:29:24.945Z,1017.40
2022-10-14T07:30:25.103Z,1017.41
2022-10-14T07:31:25.262Z,1017.34
2022-10-14T07:32:25.445Z,1017.31
2022-10-14T07:33:25.704Z,1017.32
2022-10-14T07:34:25.762Z,1017.32
2022-10-14T07:35:25.944Z,1017.34
2022-10-14T07:36:26.083Z,1017.33
2022-10-14T07:37:26.287Z,1017.35
2022-10-14T07:38:26.432Z,1017.37
2022-10-14T07:39:27.123Z,1017.38
2022-10-14T07:40:26.792Z,1017.36
2022-10-14T07:41:26.992Z,1017.36
2022-10-14T07:42:27.145Z,1017.40
2022-10-14T07:43:27.341Z,1017.40
2022-10-14T07:44:27.682Z,1017.36
2022-10-14T07:45:27.672Z,1017.33
2022-10-14T07:46:27.823Z,1017.35
2022-10-14T07:47:28.010Z,1017.37
2022-10-14T07:48:32.789Z,1017.36
2022-10-14T07:49:29.444Z,1017.34
2022-10-14T07:50:28.514Z,1017.35
2022-10-14T07:51:28.673Z,1017.32
2022-10-14T07:52:28.882Z,1017.30
2022-10-14T07:53:29.001Z,1017.30
2022-10-14T07:54:29.173Z,1017.27
2022-10-14T07:55:29.353Z,1017.23
2022-10-14T07:56:29.534Z,1017.26
2022-10-14T07:57:29.691Z,1017.31
2022-10-14T07:58:29.853Z,1017.28
2022-10-14T07:59:30.072Z,1017.31
2022-10-14T08:00:30.259Z,1017.32
2022-10-14T08:01:30.413Z,1017.33
2022-10-14T08:02:30.599Z,1017.31
2022-10-14T08:03:30.741Z,1017.34
2022-10-14T08:04:30.914Z,1017.31
2022-10-14T08:05:38.050Z,1017.34
2022-10-14T08:06:32.253Z,1017.32
2022-10-14T08:07:31.414Z,1017.33
2022-10-14T08:08:31.574Z,1017.29
2022-10-14T08:09:31.756Z,1017.29
2022-10-14T08:10:31.905Z,1017.31
2022-10-14T08:11:32.079Z,1017.28
2022-10-14T08:12:32.234Z,1017.30
2022-10-14T08:13:32.445Z,1017.30
2022-10-14T08:14:32.617Z,1017.29
2022-10-14T08:15:32.774Z,1017.30
2022-10-14T08:16:32.937Z,1017.29
2022-10-14T08:17:33.115Z,1017.30
2022-10-14T08:18:33.294Z,1017.22
2022-10-14T08:19:33.559Z,1017.20
2022-10-14T08:20:33.686Z,1017.14
2022-10-14T08:21:33.835Z,1017.13
2022-10-14T08:22:34.014Z,1017.15
2022-10-14T08:23:34.205Z,1017.13
2022-10-14T08:24:34.365Z,1017.11
2022-10-14T08:25:34.535Z,1017.07
2022-10-14T08:26:34.695Z,1017.04
2022-10-14T08:27:34.893Z,1017.06
2022-10-14T08:28:35.108Z,1017.04
2022-10-14T08:29:35.279Z,1017.05
2022-10-14T08:30:35.400Z,1017.08
2022-10-14T08:31:35.605Z,1017.04
2022-10-14T08:32:35.767Z,1017.06
2022-10-14T08:33:35.936Z,1017.08
2022-10-14T08:34:36.105Z,1017.04
2022-10-14T08:35:36.268Z,1017.04
2022-10-14T08:36:36.467Z,1017.03
2022-10-14T08:37:36.638Z,1017.08
2022-10-14T08:38:36.839Z,1017.02
2022-10-14T08:39:36.986Z,1017.08
2022-10-14T08:40:37.166Z,1017.06
2022-10-14T08:41:37.415Z,1017.03
2022-10-14T08:42:37.537Z,1016.96
2022-10-14T08:43:37.721Z,1016.96
2022-10-14T08:44:37.932Z,1017.00
2022-10-14T08:45:38.066Z,1016.97
2022-10-14T08:46:38.227Z,1016.92
2022-10-14T08:47:38.400Z,1016.93
2022-10-14T08:48:38.573Z,1016.93
2022-10-14T08:49:38.767Z,1016.81
2022-10-14T08:50:38.908Z,1016.85
2022-10-14T08:51:39.113Z,1016.86
2022-10-14T08:52:39.290Z,1016.88
2022-10-14T08:53:39.514Z,1016.85
2022-10-14T08:54:39.649Z,1016.82
2022-10-14T08:55:39.819Z,1016.80
2022-10-14T08:56:39.969Z,1016.81
2022-10-14T08:57:40.168Z,1016.71
2022-10-14T08:58:40.332Z,1016.70
2022-10-14T08:59:40.518Z,1016.69
2022-10-14T09:00:40.675Z,1016.67
2022-10-14T09:01:40.840Z,1016.66
2022-10-14T09:02:41.030Z,1016.66
2022-10-14T09:03:41.233Z,1016.63
2022-10-14T09:04:41.399Z,1016.68
2022-10-14T09:05:41.553Z,1016.66
2022-10-14T09:06:41.739Z,1016.73
2022-10-14T09:07:41.964Z,1016.62
2022-10-14T09:08:42.092Z,1016.67
2022-10-14T09:09:42.301Z,1016.67
2022-10-14T09:10:42.478Z,1016.64
2022-10-14T09:11:42.620Z,1016.68
2022-10-14T09:12:42.800Z,1016.63
2022-10-14T09:13:42.942Z,1016.62
2022-10-14T09:14:43.188Z,1016.60
2022-10-14T09:15:43.292Z,1016.57
2022-10-14T09:16:43.493Z,1016.54
2022-10-14T09:17:43.653Z,1016.52
2022-10-14T09:18:43.842Z,1016.57
2022-10-14T09:19:44.032Z,1016.56
2022-10-14T09:20:44.192Z,1016.55
2022-10-14T09:21:53.094Z,1016.61
2022-10-14T09:22:45.610Z,1016.58
2022-10-14T09:23:44.711Z,1016.56
2022-10-14T09:24:44.932Z,1016.50
2022-10-14T09:25:45.083Z,1016.50
2022-10-14T09:26:45.286Z,1016.55
2022-10-14T09:28:45.702Z,1016.49
2022-10-14T09:29:45.794Z,1016.54
2022-10-14T09:30:45.951Z,1016.50
2022-10-14T09:31:46.124Z,1016.52
2022-10-14T09:32:46.303Z,1016.45
2022-10-14T09:33:46.484Z,1016.43
2022-10-14T09:34:46.694Z,1016.43
2022-10-14T09:35:46.891Z,1016.50
2022-10-14T09:36:47.028Z,1016.51
2022-10-14T09:37:47.174Z,1016.55
2022-10-14T09:38:47.356Z,1016.52
2022-10-14T09:39:47.545Z,1016.53
2022-10-14T09:40:47.734Z,1016.49
2022-10-14T09:41:47.905Z,1016.44
2022-10-14T09:42:48.106Z,1016.46
2022-10-14T09:43:48.277Z,1016.48
2022-10-14T09:44:48.494Z,1016.48
2022-10-14T09:45:48.635Z,1016.45
2022-10-14T09:46:48.825Z,1016.46
2022-10-14T09:47:48.996Z,1016.46
2022-10-14T09:48:49.191Z,1016.40
2022-10-14T09:49:49.349Z,1016.39
2022-10-14T09:50:49.497Z,1016.44
2022-10-14T09:51:49.659Z,1016.41
2022-10-14T09:52:49.860Z,1016.41
2022-10-14T09:53:50.018Z,1016.33
2022-10-14T09:55:50.356Z,1016.32
2022-10-14T09:56:50.527Z,1016.35
2022-10-14T09:57:50.687Z,1016.36
2022-10-14T09:58:50.888Z,1016.34
2022-10-14T09:59:51.049Z,1016.39
2022-10-14T10:00:51.227Z,1016.37
2022-10-14T10:01:51.382Z,1016.38
2022-10-14T10:02:51.561Z,1016.39
2022-10-14T10:03:51.844Z,1016.32
2022-10-14T10:04:51.908Z,1016.35
2022-10-14T10:05:52.088Z,1016.38
2022-10-14T10:06:52.463Z,1016.33
2022-10-14T10:07:52.427Z,1016.38
2022-10-14T10:08:52.622Z,1016.37
2022-10-14T10:09:52.793Z,1016.38
2022-10-14T10:10:52.993Z,1016.35
2022-10-14T10:11:53.151Z,1016.37
2022-10-14T10:12:53.309Z,1016.35
2022-10-14T10:13:53.471Z,1016.34
2022-10-14T10:14:53.680Z,1016.34
2022-10-14T10:15:53.839Z,1016.36
2022-10-14T10:16:54.042Z,1016.39
2022-10-14T10:17:54.190Z,1016.36
2022-10-14T10:18:54.385Z,1016.38
2022-10-14T10:19:54.570Z,1016.34
2022-10-14T10:20:54.750Z,1016.33
2022-10-14T10:21:54.911Z,1016.33
2022-10-14T10:22:55.091Z,1016.34
2022-10-14T10:23:55.286Z,1016.32
2022-10-14T10:24:55.474Z,1016.32
2022-10-14T10:25:55.626Z,1016.33
2022-10-14T10:26:55.782Z,1016.30
2022-10-14T10:27:55.920Z,1016.26
2022-10-14T10:28:56.159Z,1016.24
2022-10-14T10:29:56.329Z,1016.22
2022-10-14T10:30:56.472Z,1016.24
2022-10-14T10:31:56.686Z,1016.23
2022-10-14T10:32:56.832Z,1016.22
2022-10-14T10:33:57.011Z,1016.21
2022-10-14T10:34:57.191Z,1016.22
2022-10-14T10:35:57.364Z,1016.21
2022-10-14T10:36:57.523Z,1016.25
2022-10-14T10:37:57.732Z,1016.28
2022-10-14T10:38:57.873Z,1016.31
2022-10-14T10:39:58.043Z,1016.24
2022-10-14T10:40:58.203Z,1016.29
2022-10-14T10:41:58.374Z,1016.25
2022-10-14T10:42:58.554Z,1016.23
2022-10-14T10:43:58.712Z,1016.19
2022-10-14T10:44:58.924Z,1016.18
2022-10-14T10:45:59.063Z,1016.17
2022-10-14T10:46:59.225Z,1016.19
2022-10-14T10:47:59.384Z,1016.15
2022-10-14T10:48:59.544Z,1016.15
2022-10-14T10:49:59.766Z,1016.17
2022-10-14T10:50:59.892Z,1016.15
2022-10-14T10:52:00.045Z,1016.18
2022-10-14T10:53:00.243Z,1016.15
2022-10-14T10:54:00.394Z,1016.18
2022-10-14T10:55:00.615Z,1016.16
2022-10-14T10:56:00.746Z,1016.16
2022-10-14T10:57:00.922Z,1016.12
2022-10-14T10:58:03.644Z,1016.08
2022-10-14T10:59:02.255Z,1016.13
2022-10-14T11:00:01.434Z,1016.11
2022-10-14T11:01:01.692Z,1016.06
2022-10-14T11:02:01.817Z,1016.09
2022-10-14T11:03:01.975Z,1016.11
2022-10-14T11:04:02.134Z,1016.10
2022-10-14T11:05:02.316Z,1016.10
2022-10-14T11:06:02.466Z,1016.10
2022-10-14T11:07:02.618Z,1016.10
2022-10-14T11:08:02.787Z,1016.07
2022-10-14T11:09:02.945Z,1016.03
2022-10-14T11:10:03.133Z,1016.05
2022-10-14T11:11:03.298Z,1016.00
2022-10-14T11:12:03.485Z,1016.04
2022-10-14T11:13:03.625Z,1015.99
2022-10-14T11:14:03.787Z,1015.98
2022-10-14T11:15:03.976Z,1015.94
2022-10-14T11:16:04.126Z,1015.92
2022-10-14T11:17:04.287Z,1015.94
2022-10-14T11:18:04.436Z,1015.92
2022-10-14T11:19:04.628Z,1015.90
2022-10-14T11:20:04.808Z,1015.87
2022-10-14T11:21:04.986Z,1015.85
2022-10-14T11:22:05.176Z,1015.85
2022-10-14T11:23:05.317Z,1015.85
2022-10-14T11:24:05.553Z,1015.83
2022-10-14T11:25:05.708Z,1015.85
2022-10-14T11:26:05.828Z,1015.87
2022-10-14T11:27:05.998Z,1015.84
2022-10-14T11:28:06.148Z,1015.83
2022-10-14T11:29:06.308Z,1015.86
2022-10-14T11:30:06.669Z,1015.85
2022-10-14T11:31:06.659Z,1015.86
2022-10-14T11:32:06.819Z,1015.79
2022-10-14T11:33:06.979Z,1015.74
2022-10-14T11:34:07.142Z,1015.71
2022-10-14T11:35:07.339Z,1015.71
2022-10-14T11:36:07.469Z,1015.70
2022-10-14T11:37:07.731Z,1015.69
2022-10-14T11:38:07.840Z,1015.72
2022-10-14T11:39:08.026Z,1015.70
2022-10-14T11:40:08.172Z,1015.69
2022-10-14T11:41:08.348Z,1015.70
2022-10-14T11:42:08.489Z,1015.68
2022-10-14T11:43:08.649Z,1015.68
2022-10-14T11:44:08.854Z,1015.67
2022-10-14T11:45:08.989Z,1015.67
2022-10-14T11:46:09.176Z,1015.66
2022-10-14T11:47:09.344Z,1015.65
2022-10-14T11:48:09.599Z,1015.64
2022-10-14T11:49:09.691Z,1015.58
2022-10-14T11:50:09.851Z,1015.60
2022-10-14T11:51:10.010Z,1015.59
2022-10-14T11:52:10.192Z,1015.58
2022-10-14T11:53:10.360Z,1015.56
2022-10-14T11:54:10.581Z,1015.60
2022-10-14T11:55:13.795Z,1015.57
2022-10-14T11:56:10.876Z,1015.55
2022-10-14T11:57:11.017Z,1015.55
2022-10-14T11:58:11.171Z,1015.52
2022-10-14T11:59:11.351Z,1015.53
2022-10-14T12:00:11.628Z,1015.51
2022-10-14T12:01:11.730Z,1015.50
2022-10-14T12:02:11.965Z,1015.47
2022-10-14T12:03:12.161Z,1015.48
2022-10-14T12:04:12.273Z,1015.48
2022-10-14T12:05:12.411Z,1015.45
2022-10-14T12:06:12.598Z,1015.50
2022-10-14T12:07:12.771Z,1015.46
2022-10-14T12:08:12.963Z,1015.45
2022-10-14T12:09:13.145Z,1015.46